sensor_id;sensor_type;location;lat;lon;timestamp;pressure;altitude;pressure_sealevel;temperature;humidity
78623;BME280;67943;54.412;9.502;2023-07-29T00:03:10;100567.38;;;18.00;88.21
78623;BME280;67943;54.412;9.502;2023-07-29T00:08:13;100561.91;;;18.03;88.20
78623;BME280;67943;54.412;9.502;2023-07-29T00:13:14;100561.91;;;18.03;87.66
78623;BME280;67943;54.412;9.502;2023-07-29T00:18:16;100542.16;;;18.07;88.03
78623;BME280;67943;54.412;9.502;2023-07-29T00:23:19;100536.47;;;18.13;87.45
78623;BME280;67943;54.412;9.502;2023-07-29T00:28:21;100530.97;;;18.16;87.03
78623;BME280;67943;54.412;9.502;2023-07-29T00:33:23;100535.72;;;18.11;87.65
78623;BME280;67943;54.412;9.502;2023-07-29T00:38:26;100518.53;;;18.17;87.39
78623;BME280;67943;54.412;9.502;2023-07-29T00:43:27;100514.81;;;18.19;87.47
78623;BME280;67943;54.412;9.502;2023-07-29T00:48:28;100519.09;;;18.22;87.04
78623;BME280;67943;54.412;9.502;2023-07-29T00:53:31;100504.16;;;18.19;87.03
78623;BME280;67943;54.412;9.502;2023-07-29T00:58:33;100497.78;;;18.22;87.06
78623;BME280;67943;54.412;9.502;2023-07-29T01:03:35;100512.91;;;18.21;86.25
78623;BME280;67943;54.412;9.502;2023-07-29T01:08:45;100502.56;;;18.17;86.81
78623;BME280;67943;54.412;9.502;2023-07-29T01:13:52;100480.31;;;18.18;86.33
78623;BME280;67943;54.412;9.502;2023-07-29T01:18:55;100481.69;;;18.09;86.40
78623;BME280;67943;54.412;9.502;2023-07-29T01:23:59;100492.84;;;18.00;85.96
78623;BME280;67943;54.412;9.502;2023-07-29T01:29:00;100484.81;;;17.86;87.04
78623;BME280;67943;54.412;9.502;2023-07-29T01:34:09;100503.44;;;17.86;86.36
78623;BME280;67943;54.412;9.502;2023-07-29T01:39:14;100489.44;;;17.82;87.18
78623;BME280;67943;54.412;9.502;2023-07-29T01:44:18;100474.34;;;17.83;87.05
78623;BME280;67943;54.412;9.502;2023-07-29T01:49:20;100481.38;;;17.84;87.36
78623;BME280;67943;54.412;9.502;2023-07-29T01:54:23;100478.78;;;17.82;87.44
78623;BME280;67943;54.412;9.502;2023-07-29T01:59:24;100487.47;;;17.86;86.58
78623;BME280;67943;54.412;9.502;2023-07-29T02:04:26;100475.19;;;17.83;87.24
78623;BME280;67943;54.412;9.502;2023-07-29T02:09:28;100474.16;;;17.86;87.19
78623;BME280;67943;54.412;9.502;2023-07-29T02:14:31;100484.53;;;17.91;86.59
78623;BME280;67943;54.412;9.502;2023-07-29T02:19:32;100481.28;;;17.85;86.30
78623;BME280;67943;54.412;9.502;2023-07-29T02:24:35;100471.25;;;17.75;86.96
78623;BME280;67943;54.412;9.502;2023-07-29T02:29:37;100467.72;;;17.74;87.51
78623;BME280;67943;54.412;9.502;2023-07-29T02:34:38;100458.03;;;17.73;87.82
78623;BME280;67943;54.412;9.502;2023-07-29T02:39:41;100456.03;;;17.77;88.02
78623;BME280;67943;54.412;9.502;2023-07-29T02:44:43;100453.38;;;17.77;87.77
78623;BME280;67943;54.412;9.502;2023-07-29T02:49:44;100442.75;;;17.77;87.91
78623;BME280;67943;54.412;9.502;2023-07-29T02:54:47;100450.63;;;17.78;87.56
78623;BME280;67943;54.412;9.502;2023-07-29T02:59:48;100447.13;;;17.78;87.33
78623;BME280;67943;54.412;9.502;2023-07-29T03:04:50;100441.72;;;17.79;87.43
78623;BME280;67943;54.412;9.502;2023-07-29T03:09:53;100438.97;;;17.81;87.45
78623;BME280;67943;54.412;9.502;2023-07-29T03:14:54;100431.91;;;17.80;87.79
78623;BME280;67943;54.412;9.502;2023-07-29T03:19:56;100435.34;;;17.82;87.64
78623;BME280;67943;54.412;9.502;2023-07-29T03:24:59;100433.63;;;17.81;87.61
78623;BME280;67943;54.412;9.502;2023-07-29T03:30:00;100444.13;;;17.84;86.79
78623;BME280;67943;54.412;9.502;2023-07-29T03:35:02;100469.19;;;17.80;87.26
78623;BME280;67943;54.412;9.502;2023-07-29T03:40:07;100462.97;;;17.64;88.94
78623;BME280;67943;54.412;9.502;2023-07-29T03:45:09;100451.41;;;17.65;89.40
78623;BME280;67943;54.412;9.502;2023-07-29T03:50:11;100435.69;;;17.60;89.55
78623;BME280;67943;54.412;9.502;2023-07-29T03:55:14;100416.94;;;17.62;89.74
78623;BME280;67943;54.412;9.502;2023-07-29T04:00:15;100413.34;;;17.63;89.88
78623;BME280;67943;54.412;9.502;2023-07-29T04:05:17;100415.69;;;17.69;89.72
78623;BME280;67943;54.412;9.502;2023-07-29T04:10:20;100432.34;;;17.57;89.65
78623;BME280;67943;54.412;9.502;2023-07-29T04:15:22;100449.59;;;17.49;90.25
78623;BME280;67943;54.412;9.502;2023-07-29T04:20:23;100456.78;;;17.47;90.82
78623;BME280;67943;54.412;9.502;2023-07-29T04:25:26;100435.84;;;17.41;91.71
78623;BME280;67943;54.412;9.502;2023-07-29T04:30:27;100444.34;;;17.48;91.46
78623;BME280;67943;54.412;9.502;2023-07-29T04:35:29;100432.69;;;17.50;91.73
78623;BME280;67943;54.412;9.502;2023-07-29T04:40:33;100441.09;;;17.43;92.54
78623;BME280;67943;54.412;9.502;2023-07-29T04:45:35;100423.69;;;17.53;92.18
78623;BME280;67943;54.412;9.502;2023-07-29T04:50:36;100416.38;;;17.57;92.43
78623;BME280;67943;54.412;9.502;2023-07-29T04:55:41;100421.34;;;17.63;92.36
78623;BME280;67943;54.412;9.502;2023-07-29T05:00:42;100414.94;;;17.67;92.54
78623;BME280;67943;54.412;9.502;2023-07-29T05:05:44;100396.91;;;17.72;92.40
78623;BME280;67943;54.412;9.502;2023-07-29T05:10:49;100407.03;;;17.81;92.35
78623;BME280;67943;54.412;9.502;2023-07-29T05:15:51;100394.31;;;17.86;92.16
78623;BME280;67943;54.412;9.502;2023-07-29T05:20:52;100395.09;;;17.88;92.04
78623;BME280;67943;54.412;9.502;2023-07-29T05:25:55;100388.69;;;17.91;91.89
78623;BME280;67943;54.412;9.502;2023-07-29T05:31:00;100390.31;;;17.93;92.14
78623;BME280;67943;54.412;9.502;2023-07-29T05:36:02;100400.03;;;17.94;92.18
78623;BME280;67943;54.412;9.502;2023-07-29T05:41:05;100398.03;;;18.13;91.16
78623;BME280;67943;54.412;9.502;2023-07-29T05:46:06;100376.28;;;18.35;90.86
78623;BME280;67943;54.412;9.502;2023-07-29T05:51:07;100376.97;;;18.39;90.56
78623;BME280;67943;54.412;9.502;2023-07-29T05:56:10;100385.91;;;18.52;89.74
78623;BME280;67943;54.412;9.502;2023-07-29T06:01:12;100392.09;;;18.52;89.72
78623;BME280;67943;54.412;9.502;2023-07-29T06:06:13;100390.09;;;18.56;90.36
78623;BME280;67943;54.412;9.502;2023-07-29T06:11:16;100389.22;;;18.71;90.24
78623;BME280;67943;54.412;9.502;2023-07-29T06:16:17;100380.53;;;18.82;89.69
78623;BME280;67943;54.412;9.502;2023-07-29T06:21:19;100378.72;;;18.82;89.73
78623;BME280;67943;54.412;9.502;2023-07-29T06:26:22;100375.88;;;18.85;89.23
78623;BME280;67943;54.412;9.502;2023-07-29T06:31:24;100370.72;;;18.82;89.99
78623;BME280;67943;54.412;9.502;2023-07-29T06:36:25;100371.50;;;18.99;89.35
78623;BME280;67943;54.412;9.502;2023-07-29T06:41:28;100372.22;;;19.15;88.55
78623;BME280;67943;54.412;9.502;2023-07-29T06:46:30;100367.53;;;19.18;88.48
78623;BME280;67943;54.412;9.502;2023-07-29T06:51:32;100361.34;;;19.18;89.33
78623;BME280;67943;54.412;9.502;2023-07-29T06:56:36;100366.81;;;19.43;87.46
78623;BME280;67943;54.412;9.502;2023-07-29T07:01:38;100365.09;;;19.57;85.94
78623;BME280;67943;54.412;9.502;2023-07-29T07:06:39;100372.84;;;19.74;85.41
78623;BME280;67943;54.412;9.502;2023-07-29T07:11:42;100373.44;;;19.65;83.85
78623;BME280;67943;54.412;9.502;2023-07-29T07:16:43;100377.28;;;19.46;85.72
78623;BME280;67943;54.412;9.502;2023-07-29T07:21:45;100378.16;;;19.47;86.40
78623;BME280;67943;54.412;9.502;2023-07-29T07:26:48;100372.47;;;19.66;86.68
78623;BME280;67943;54.412;9.502;2023-07-29T07:31:51;100378.88;;;19.90;86.19
78623;BME280;67943;54.412;9.502;2023-07-29T07:36:53;100373.91;;;20.11;85.37
78623;BME280;67943;54.412;9.502;2023-07-29T07:41:56;100370.22;;;20.39;84.77
78623;BME280;67943;54.412;9.502;2023-07-29T07:46:57;100369.06;;;20.43;83.17
78623;BME280;67943;54.412;9.502;2023-07-29T07:51:59;100374.31;;;20.44;83.09
78623;BME280;67943;54.412;9.502;2023-07-29T07:57:02;100361.66;;;20.59;83.26
78623;BME280;67943;54.412;9.502;2023-07-29T08:02:04;100348.31;;;20.59;83.65
78623;BME280;67943;54.412;9.502;2023-07-29T08:07:05;100350.25;;;20.70;82.80
78623;BME280;67943;54.412;9.502;2023-07-29T08:12:08;100352.00;;;20.95;81.97
78623;BME280;67943;54.412;9.502;2023-07-29T08:17:10;100346.75;;;21.06;81.42
78623;BME280;67943;54.412;9.502;2023-07-29T08:22:11;100341.81;;;21.25;81.72
78623;BME280;67943;54.412;9.502;2023-07-29T08:27:14;100343.72;;;21.23;78.98
78623;BME280;67943;54.412;9.502;2023-07-29T08:32:15;100333.84;;;21.36;79.32
78623;BME280;67943;54.412;9.502;2023-07-29T08:37:17;100338.16;;;21.26;78.48
78623;BME280;67943;54.412;9.502;2023-07-29T08:42:20;100344.56;;;21.36;78.08
78623;BME280;67943;54.412;9.502;2023-07-29T08:47:24;100343.06;;;21.32;77.36
78623;BME280;67943;54.412;9.502;2023-07-29T08:52:26;100352.09;;;21.06;77.47
78623;BME280;67943;54.412;9.502;2023-07-29T08:57:30;100361.00;;;20.94;77.39
78623;BME280;67943;54.412;9.502;2023-07-29T09:02:31;100350.56;;;21.14;77.90
78623;BME280;67943;54.412;9.502;2023-07-29T09:07:34;100346.91;;;21.65;75.50
78623;BME280;67943;54.412;9.502;2023-07-29T09:12:37;100343.59;;;21.96;74.41
78623;BME280;67943;54.412;9.502;2023-07-29T09:17:40;100343.16;;;22.48;72.26
78623;BME280;67943;54.412;9.502;2023-07-29T09:22:43;100342.06;;;22.62;70.94
78623;BME280;67943;54.412;9.502;2023-07-29T09:27:46;100345.50;;;22.86;69.83
78623;BME280;67943;54.412;9.502;2023-07-29T09:32:54;100339.38;;;22.51;70.76
78623;BME280;67943;54.412;9.502;2023-07-29T09:37:55;100337.19;;;23.01;70.71
78623;BME280;67943;54.412;9.502;2023-07-29T09:42:58;100333.19;;;23.49;69.68
78623;BME280;67943;54.412;9.502;2023-07-29T09:48:00;100329.84;;;23.14;69.00
78623;BME280;67943;54.412;9.502;2023-07-29T09:53:02;100328.75;;;22.61;69.78
78623;BME280;67943;54.412;9.502;2023-07-29T09:58:05;100337.56;;;22.74;70.13
78623;BME280;67943;54.412;9.502;2023-07-29T10:03:08;100334.97;;;23.17;69.25
78623;BME280;67943;54.412;9.502;2023-07-29T10:08:10;100326.47;;;22.89;68.42
78623;BME280;67943;54.412;9.502;2023-07-29T10:13:13;100328.91;;;22.70;70.19
78623;BME280;67943;54.412;9.502;2023-07-29T10:18:16;100321.94;;;22.68;72.16
78623;BME280;67943;54.412;9.502;2023-07-29T10:23:18;100329.03;;;23.02;70.17
78623;BME280;67943;54.412;9.502;2023-07-29T10:28:25;100318.72;;;23.30;67.79
78623;BME280;67943;54.412;9.502;2023-07-29T10:33:27;100312.00;;;23.99;66.15
78623;BME280;67943;54.412;9.502;2023-07-29T10:38:29;100305.31;;;25.75;59.40
78623;BME280;67943;54.412;9.502;2023-07-29T10:43:34;100304.28;;;25.47;58.69
78623;BME280;67943;54.412;9.502;2023-07-29T10:48:39;100297.34;;;26.58;57.67
78623;BME280;67943;54.412;9.502;2023-07-29T10:53:41;100307.94;;;26.42;56.13
78623;BME280;67943;54.412;9.502;2023-07-29T10:58:44;100292.19;;;26.75;54.82
78623;BME280;67943;54.412;9.502;2023-07-29T11:04:00;100297.50;;;27.21;52.06
78623;BME280;67943;54.412;9.502;2023-07-29T11:09:39;100293.28;;;26.54;53.34
78623;BME280;67943;54.412;9.502;2023-07-29T11:14:42;100301.38;;;25.69;56.54
78623;BME280;67943;54.412;9.502;2023-07-29T11:19:44;100306.59;;;25.80;54.99
78623;BME280;67943;54.412;9.502;2023-07-29T11:24:46;100293.47;;;27.08;52.65
78623;BME280;67943;54.412;9.502;2023-07-29T11:29:48;100298.22;;;25.93;55.32
78623;BME280;67943;54.412;9.502;2023-07-29T11:34:50;100295.91;;;24.81;58.88
78623;BME280;67943;54.412;9.502;2023-07-29T11:39:52;100286.91;;;26.46;54.33
78623;BME280;67943;54.412;9.502;2023-07-29T11:44:56;100309.28;;;26.66;54.62
78623;BME280;67943;54.412;9.502;2023-07-29T11:49:58;100296.94;;;26.90;53.46
78623;BME280;67943;54.412;9.502;2023-07-29T11:55:01;100306.66;;;26.46;54.04
78623;BME280;67943;54.412;9.502;2023-07-29T12:00:06;100317.91;;;26.22;55.10
78623;BME280;67943;54.412;9.502;2023-07-29T12:05:10;100330.19;;;25.19;57.86
78623;BME280;67943;54.412;9.502;2023-07-29T12:10:13;100322.28;;;26.80;55.43
78623;BME280;67943;54.412;9.502;2023-07-29T12:15:24;100336.34;;;26.83;54.99
78623;BME280;67943;54.412;9.502;2023-07-29T12:20:26;100338.03;;;26.28;54.80
78623;BME280;67943;54.412;9.502;2023-07-29T12:25:28;100342.03;;;26.24;55.74
78623;BME280;67943;54.412;9.502;2023-07-29T12:30:31;100350.56;;;26.10;54.78
78623;BME280;67943;54.412;9.502;2023-07-29T12:35:36;100342.28;;;25.34;56.26
78623;BME280;67943;54.412;9.502;2023-07-29T12:40:38;100351.63;;;25.49;57.86
78623;BME280;67943;54.412;9.502;2023-07-29T12:45:42;100348.44;;;25.75;56.58
78623;BME280;67943;54.412;9.502;2023-07-29T12:50:44;100359.44;;;25.52;57.17
78623;BME280;67943;54.412;9.502;2023-07-29T12:55:46;100352.00;;;24.85;59.58
78623;BME280;67943;54.412;9.502;2023-07-29T13:00:49;100354.19;;;25.51;56.65
78623;BME280;67943;54.412;9.502;2023-07-29T13:05:51;100337.66;;;25.06;57.10
78623;BME280;67943;54.412;9.502;2023-07-29T13:10:53;100348.47;;;25.25;57.30
78623;BME280;67943;54.412;9.502;2023-07-29T13:15:56;100357.69;;;24.92;57.54
78623;BME280;67943;54.412;9.502;2023-07-29T13:20:58;100345.34;;;25.20;57.72
78623;BME280;67943;54.412;9.502;2023-07-29T13:26:00;100341.34;;;25.05;56.88
78623;BME280;67943;54.412;9.502;2023-07-29T13:31:03;100341.41;;;25.24;57.74
78623;BME280;67943;54.412;9.502;2023-07-29T13:36:05;100341.34;;;25.05;58.01
78623;BME280;67943;54.412;9.502;2023-07-29T13:41:08;100349.03;;;25.09;57.53
78623;BME280;67943;54.412;9.502;2023-07-29T13:46:11;100355.41;;;24.87;58.11
78623;BME280;67943;54.412;9.502;2023-07-29T13:51:12;100352.13;;;25.14;58.65
78623;BME280;67943;54.412;9.502;2023-07-29T13:56:14;100360.31;;;25.53;56.98
78623;BME280;67943;54.412;9.502;2023-07-29T14:01:17;100357.03;;;25.40;56.93
78623;BME280;67943;54.412;9.502;2023-07-29T14:06:19;100361.00;;;25.36;56.74
78623;BME280;67943;54.412;9.502;2023-07-29T14:11:20;100366.41;;;24.75;57.18
78623;BME280;67943;54.412;9.502;2023-07-29T14:16:23;100378.72;;;23.94;59.39
78623;BME280;67943;54.412;9.502;2023-07-29T14:21:24;100364.16;;;23.97;59.79
78623;BME280;67943;54.412;9.502;2023-07-29T14:26:26;100359.13;;;24.03;60.92
78623;BME280;67943;54.412;9.502;2023-07-29T14:31:29;100359.69;;;24.39;59.15
78623;BME280;67943;54.412;9.502;2023-07-29T14:36:30;100359.66;;;24.80;57.69
78623;BME280;67943;54.412;9.502;2023-07-29T14:41:32;100362.34;;;25.11;56.87
78623;BME280;67943;54.412;9.502;2023-07-29T14:46:35;100348.28;;;24.77;55.56
78623;BME280;67943;54.412;9.502;2023-07-29T14:51:36;100355.50;;;24.76;55.47
78623;BME280;67943;54.412;9.502;2023-07-29T14:56:37;100355.84;;;24.92;56.26
78623;BME280;67943;54.412;9.502;2023-07-29T15:01:40;100351.78;;;25.38;55.67
78623;BME280;67943;54.412;9.502;2023-07-29T15:06:42;100346.59;;;24.85;54.68
78623;BME280;67943;54.412;9.502;2023-07-29T15:11:43;100350.84;;;24.78;56.59
78623;BME280;67943;54.412;9.502;2023-07-29T15:16:46;100355.59;;;24.65;56.24
78623;BME280;67943;54.412;9.502;2023-07-29T15:21:47;100361.22;;;24.62;55.47
78623;BME280;67943;54.412;9.502;2023-07-29T15:26:49;100374.56;;;24.64;56.40
78623;BME280;67943;54.412;9.502;2023-07-29T15:31:52;100364.72;;;24.74;55.72
78623;BME280;67943;54.412;9.502;2023-07-29T15:36:53;100376.41;;;24.42;56.68
78623;BME280;67943;54.412;9.502;2023-07-29T15:41:55;100374.69;;;24.20;58.31
78623;BME280;67943;54.412;9.502;2023-07-29T15:46:58;100377.84;;;24.26;58.94
78623;BME280;67943;54.412;9.502;2023-07-29T15:52:00;100378.38;;;24.40;58.70
78623;BME280;67943;54.412;9.502;2023-07-29T15:57:01;100380.88;;;24.53;57.42
78623;BME280;67943;54.412;9.502;2023-07-29T16:02:05;100378.97;;;24.44;57.17
78623;BME280;67943;54.412;9.502;2023-07-29T16:07:08;100377.59;;;24.49;57.64
78623;BME280;67943;54.412;9.502;2023-07-29T16:12:10;100376.91;;;24.57;57.47
78623;BME280;67943;54.412;9.502;2023-07-29T16:17:13;100379.56;;;24.47;58.12
78623;BME280;67943;54.412;9.502;2023-07-29T16:22:14;100374.03;;;24.70;57.23
78623;BME280;67943;54.412;9.502;2023-07-29T16:27:16;100382.94;;;24.70;57.68
78623;BME280;67943;54.412;9.502;2023-07-29T16:32:18;100379.47;;;24.79;56.88
78623;BME280;67943;54.412;9.502;2023-07-29T16:37:20;100383.72;;;23.67;58.41
78623;BME280;67943;54.412;9.502;2023-07-29T16:42:21;100380.84;;;23.36;60.18
78623;BME280;67943;54.412;9.502;2023-07-29T16:47:24;100373.53;;;23.16;60.45
78623;BME280;67943;54.412;9.502;2023-07-29T16:52:26;100390.00;;;22.89;61.83
78623;BME280;67943;54.412;9.502;2023-07-29T16:57:28;100388.28;;;22.77;63.39
78623;BME280;67943;54.412;9.502;2023-07-29T17:02:31;100393.75;;;22.64;62.67
78623;BME280;67943;54.412;9.502;2023-07-29T17:07:32;100391.22;;;22.28;63.44
78623;BME280;67943;54.412;9.502;2023-07-29T17:12:34;100406.34;;;21.81;67.17
78623;BME280;67943;54.412;9.502;2023-07-29T17:17:36;100398.72;;;21.87;67.49
78623;BME280;67943;54.412;9.502;2023-07-29T17:22:38;100401.63;;;22.08;65.71
78623;BME280;67943;54.412;9.502;2023-07-29T17:27:40;100407.28;;;22.16;64.93
78623;BME280;67943;54.412;9.502;2023-07-29T17:32:43;100406.13;;;22.43;64.77
78623;BME280;67943;54.412;9.502;2023-07-29T17:37:44;100403.41;;;22.32;64.17
78623;BME280;67943;54.412;9.502;2023-07-29T17:42:46;100409.50;;;22.22;64.22
78623;BME280;67943;54.412;9.502;2023-07-29T17:47:48;100404.38;;;22.19;64.23
78623;BME280;67943;54.412;9.502;2023-07-29T17:52:50;100413.09;;;22.10;65.20
78623;BME280;67943;54.412;9.502;2023-07-29T17:57:52;100418.84;;;21.93;65.40
78623;BME280;67943;54.412;9.502;2023-07-29T18:02:54;100431.44;;;21.43;66.30
78623;BME280;67943;54.412;9.502;2023-07-29T18:07:56;100429.53;;;21.20;66.81
78623;BME280;67943;54.412;9.502;2023-07-29T18:12:57;100435.97;;;20.79;68.75
78623;BME280;67943;54.412;9.502;2023-07-29T18:18:02;100440.69;;;20.88;68.67
78623;BME280;67943;54.412;9.502;2023-07-29T18:23:04;100444.19;;;20.51;70.28
78623;BME280;67943;54.412;9.502;2023-07-29T18:28:06;100451.81;;;20.44;70.90
78623;BME280;67943;54.412;9.502;2023-07-29T18:33:09;100469.97;;;20.39;71.53
78623;BME280;67943;54.412;9.502;2023-07-29T18:38:11;100470.09;;;20.23;72.42
78623;BME280;67943;54.412;9.502;2023-07-29T18:43:12;100458.13;;;20.16;72.88
78623;BME280;67943;54.412;9.502;2023-07-29T18:48:15;100461.28;;;20.09;73.29
78623;BME280;67943;54.412;9.502;2023-07-29T18:53:17;100461.59;;;20.04;73.37
78623;BME280;67943;54.412;9.502;2023-07-29T18:58:18;100471.69;;;19.86;74.17
78623;BME280;67943;54.412;9.502;2023-07-29T19:03:21;100474.84;;;19.79;74.53
78623;BME280;67943;54.412;9.502;2023-07-29T19:08:23;100480.31;;;19.63;75.38
78623;BME280;67943;54.412;9.502;2023-07-29T19:13:26;100487.09;;;19.54;75.76
78623;BME280;67943;54.412;9.502;2023-07-29T19:18:29;100493.16;;;19.42;76.20
78623;BME280;67943;54.412;9.502;2023-07-29T19:23:30;100501.94;;;19.44;76.24
78623;BME280;67943;54.412;9.502;2023-07-29T19:28:32;100498.78;;;19.38;76.55
78623;BME280;67943;54.412;9.502;2023-07-29T19:33:34;100508.06;;;19.32;76.65
78623;BME280;67943;54.412;9.502;2023-07-29T19:38:40;100506.50;;;19.14;77.13
78623;BME280;67943;54.412;9.502;2023-07-29T19:43:42;100508.88;;;18.90;78.14
78623;BME280;67943;54.412;9.502;2023-07-29T19:48:48;100509.13;;;18.71;78.75
78623;BME280;67943;54.412;9.502;2023-07-29T19:53:52;100513.69;;;18.69;78.42
78623;BME280;67943;54.412;9.502;2023-07-29T19:58:53;100508.28;;;18.55;78.91
78623;BME280;67943;54.412;9.502;2023-07-29T20:03:56;100506.88;;;18.34;79.33
78623;BME280;67943;54.412;9.502;2023-07-29T20:08:57;100510.34;;;18.20;80.10
78623;BME280;67943;54.412;9.502;2023-07-29T20:13:59;100515.69;;;18.04;80.79
78623;BME280;67943;54.412;9.502;2023-07-29T20:19:01;100507.28;;;17.96;81.29
78623;BME280;67943;54.412;9.502;2023-07-29T20:24:03;100522.06;;;17.86;81.41
78623;BME280;67943;54.412;9.502;2023-07-29T20:29:05;100523.25;;;17.80;81.60
78623;BME280;67943;54.412;9.502;2023-07-29T20:34:07;100526.16;;;17.60;82.43
78623;BME280;67943;54.412;9.502;2023-07-29T20:39:09;100518.06;;;17.62;82.20
78623;BME280;67943;54.412;9.502;2023-07-29T20:44:11;100520.34;;;17.69;81.81
78623;BME280;67943;54.412;9.502;2023-07-29T20:49:13;100527.50;;;17.51;82.26
78623;BME280;67943;54.412;9.502;2023-07-29T20:54:15;100520.63;;;17.47;82.65
78623;BME280;67943;54.412;9.502;2023-07-29T20:59:16;100516.94;;;17.50;81.71
78623;BME280;67943;54.412;9.502;2023-07-29T21:04:19;100519.47;;;17.36;82.14
78623;BME280;67943;54.412;9.502;2023-07-29T21:09:21;100512.88;;;17.27;82.58
78623;BME280;67943;54.412;9.502;2023-07-29T21:14:22;100524.69;;;17.21;82.78
78623;BME280;67943;54.412;9.502;2023-07-29T21:19:25;100527.59;;;17.17;83.13
78623;BME280;67943;54.412;9.502;2023-07-29T21:24:27;100518.28;;;17.08;83.07
78623;BME280;67943;54.412;9.502;2023-07-29T21:29:28;100516.56;;;17.07;83.12
78623;BME280;67943;54.412;9.502;2023-07-29T21:34:36;100506.97;;;17.05;83.23
78623;BME280;67943;54.412;9.502;2023-07-29T21:39:37;100512.94;;;16.93;83.53
78623;BME280;67943;54.412;9.502;2023-07-29T21:44:39;100513.97;;;16.90;83.84
78623;BME280;67943;54.412;9.502;2023-07-29T21:49:42;100513.19;;;16.88;83.71
78623;BME280;67943;54.412;9.502;2023-07-29T21:54:43;100518.56;;;16.86;83.65
78623;BME280;67943;54.412;9.502;2023-07-29T21:59:45;100528.09;;;16.91;83.67
78623;BME280;67943;54.412;9.502;2023-07-29T22:04:48;100524.91;;;16.84;83.78
78623;BME280;67943;54.412;9.502;2023-07-29T22:09:49;100524.19;;;16.80;83.57
78623;BME280;67943;54.412;9.502;2023-07-29T22:14:51;100524.53;;;16.74;83.95
78623;BME280;67943;54.412;9.502;2023-07-29T22:19:54;100517.50;;;16.73;84.03
78623;BME280;67943;54.412;9.502;2023-07-29T22:24:55;100523.69;;;16.74;83.57
78623;BME280;67943;54.412;9.502;2023-07-29T22:29:57;100520.06;;;16.75;83.09
78623;BME280;67943;54.412;9.502;2023-07-29T22:35:00;100524.53;;;16.74;82.61
78623;BME280;67943;54.412;9.502;2023-07-29T22:40:01;100524.84;;;16.68;82.92
78623;BME280;67943;54.412;9.502;2023-07-29T22:45:03;100523.41;;;16.61;83.08
78623;BME280;67943;54.412;9.502;2023-07-29T22:50:06;100531.66;;;16.55;83.27
78623;BME280;67943;54.412;9.502;2023-07-29T22:55:08;100532.59;;;16.54;83.54
78623;BME280;67943;54.412;9.502;2023-07-29T23:00:10;100537.63;;;16.43;84.02
78623;BME280;67943;54.412;9.502;2023-07-29T23:05:14;100537.34;;;16.30;84.59
78623;BME280;67943;54.412;9.502;2023-07-29T23:10:16;100534.19;;;16.22;84.67
78623;BME280;67943;54.412;9.502;2023-07-29T23:15:17;100528.56;;;16.11;85.08
78623;BME280;67943;54.412;9.502;2023-07-29T23:20:20;100533.03;;;16.10;84.94
78623;BME280;67943;54.412;9.502;2023-07-29T23:25:21;100526.84;;;16.10;84.77
78623;BME280;67943;54.412;9.502;2023-07-29T23:30:23;100507.72;;;16.03;85.09
78623;BME280;67943;54.412;9.502;2023-07-29T23:35:26;100512.53;;;15.95;85.11
78623;BME280;67943;54.412;9.502;2023-07-29T23:40:27;100522.41;;;15.92;85.42
78623;BME280;67943;54.412;9.502;2023-07-29T23:45:29;100506.41;;;15.93;85.13
78623;BME280;67943;54.412;9.502;2023-07-29T23:50:31;100505.56;;;15.93;85.48
78623;BME280;67943;54.412;9.502;2023-07-29T23:55:33;100507.94;;;15.99;85.09
